sensor_id;sensor_type;location;lat;lon;timestamp;temperature;humidity
66035;HTU21D;52805;51.074;5.842;2023-10-13T00:00:29;19.36;118.99
66035;HTU21D;52805;51.074;5.842;2023-10-13T00:02:59;19.32;118.99
66035;HTU21D;52805;51.074;5.842;2023-10-13T00:05:31;19.31;118.99
66035;HTU21D;52805;51.074;5.842;2023-10-13T00:07:58;19.30;118.99
66035;HTU21D;52805;51.074;5.842;2023-10-13T00:10:28;19.30;118.99
66035;HTU21D;52805;51.074;5.842;2023-10-13T00:12:55;19.30;118.99
66035;HTU21D;52805;51.074;5.842;2023-10-13T00:15:38;19.30;118.99
66035;HTU21D;52805;51.074;5.842;2023-10-13T00:18:06;19.29;118.99
66035;HTU21D;52805;51.074;5.842;2023-10-13T00:20:41;19.30;118.99
66035;HTU21D;52805;51.074;5.842;2023-10-13T00:23:14;19.31;118.99
66035;HTU21D;52805;51.074;5.842;2023-10-13T00:25:41;19.32;118.99
66035;HTU21D;52805;51.074;5.842;2023-10-13T00:28:16;19.33;118.99
66035;HTU21D;52805;51.074;5.842;2023-10-13T00:30:50;19.40;118.99
66035;HTU21D;52805;51.074;5.842;2023-10-13T00:33:27;19.35;118.99
66035;HTU21D;52805;51.074;5.842;2023-10-13T00:35:53;19.36;118.99
66035;HTU21D;52805;51.074;5.842;2023-10-13T00:38:19;19.33;118.99
66035;HTU21D;52805;51.074;5.842;2023-10-13T00:40:46;19.33;118.99
66035;HTU21D;52805;51.074;5.842;2023-10-13T00:43:22;19.36;118.99
66035;HTU21D;52805;51.074;5.842;2023-10-13T00:45:53;19.36;118.99
66035;HTU21D;52805;51.074;5.842;2023-10-13T00:48:42;19.35;118.99
66035;HTU21D;52805;51.074;5.842;2023-10-13T00:51:11;19.37;118.99
66035;HTU21D;52805;51.074;5.842;2023-10-13T00:53:56;19.35;118.99
66035;HTU21D;52805;51.074;5.842;2023-10-13T00:56:25;19.32;118.99
66035;HTU21D;52805;51.074;5.842;2023-10-13T00:58:56;19.32;118.99
66035;HTU21D;52805;51.074;5.842;2023-10-13T01:01:28;19.33;118.99
66035;HTU21D;52805;51.074;5.842;2023-10-13T01:03:56;19.32;118.99
66035;HTU21D;52805;51.074;5.842;2023-10-13T01:06:26;19.31;118.99
66035;HTU21D;52805;51.074;5.842;2023-10-13T01:09:19;19.30;118.99
66035;HTU21D;52805;51.074;5.842;2023-10-13T01:11:49;19.29;118.99
66035;HTU21D;52805;51.074;5.842;2023-10-13T01:14:18;19.29;118.99
66035;HTU21D;52805;51.074;5.842;2023-10-13T01:16:47;19.29;118.99
66035;HTU21D;52805;51.074;5.842;2023-10-13T01:19:18;19.28;118.99
66035;HTU21D;52805;51.074;5.842;2023-10-13T01:21:50;19.28;118.99
66035;HTU21D;52805;51.074;5.842;2023-10-13T01:24:21;19.28;118.99
66035;HTU21D;52805;51.074;5.842;2023-10-13T01:26:50;19.26;118.99
66035;HTU21D;52805;51.074;5.842;2023-10-13T01:29:18;19.28;118.99
66035;HTU21D;52805;51.074;5.842;2023-10-13T01:31:45;19.26;118.99
66035;HTU21D;52805;51.074;5.842;2023-10-13T01:34:16;19.26;118.99
66035;HTU21D;52805;51.074;5.842;2023-10-13T01:36:49;19.27;118.99
66035;HTU21D;52805;51.074;5.842;2023-10-13T01:39:20;19.27;118.99
66035;HTU21D;52805;51.074;5.842;2023-10-13T01:41:47;19.27;118.99
66035;HTU21D;52805;51.074;5.842;2023-10-13T01:44:24;19.27;118.99
66035;HTU21D;52805;51.074;5.842;2023-10-13T01:46:53;19.29;118.99
66035;HTU21D;52805;51.074;5.842;2023-10-13T01:49:19;19.30;118.99
66035;HTU21D;52805;51.074;5.842;2023-10-13T01:51:47;19.30;118.99
66035;HTU21D;52805;51.074;5.842;2023-10-13T01:54:13;19.32;118.99
66035;HTU21D;52805;51.074;5.842;2023-10-13T01:56:41;19.31;118.99
66035;HTU21D;52805;51.074;5.842;2023-10-13T01:59:11;19.31;118.99
66035;HTU21D;52805;51.074;5.842;2023-10-13T02:01:38;19.33;118.99
66035;HTU21D;52805;51.074;5.842;2023-10-13T02:04:05;19.35;118.99
66035;HTU21D;52805;51.074;5.842;2023-10-13T02:06:36;19.31;118.99
66035;HTU21D;52805;51.074;5.842;2023-10-13T02:09:07;19.31;118.99
66035;HTU21D;52805;51.074;5.842;2023-10-13T02:11:40;19.35;118.99
66035;HTU21D;52805;51.074;5.842;2023-10-13T02:14:08;19.36;118.99
66035;HTU21D;52805;51.074;5.842;2023-10-13T02:16:38;19.36;118.99
66035;HTU21D;52805;51.074;5.842;2023-10-13T02:19:03;19.33;118.99
66035;HTU21D;52805;51.074;5.842;2023-10-13T02:21:31;19.36;118.99
66035;HTU21D;52805;51.074;5.842;2023-10-13T02:23:58;19.35;118.99
66035;HTU21D;52805;51.074;5.842;2023-10-13T02:26:30;19.36;118.99
66035;HTU21D;52805;51.074;5.842;2023-10-13T02:29:01;19.38;118.99
66035;HTU21D;52805;51.074;5.842;2023-10-13T02:31:35;19.38;118.99
66035;HTU21D;52805;51.074;5.842;2023-10-13T02:34:01;19.37;118.99
66035;HTU21D;52805;51.074;5.842;2023-10-13T02:36:38;19.35;118.99
66035;HTU21D;52805;51.074;5.842;2023-10-13T02:39:15;19.38;118.99
66035;HTU21D;52805;51.074;5.842;2023-10-13T02:41:51;19.38;118.99
66035;HTU21D;52805;51.074;5.842;2023-10-13T02:44:16;19.39;118.99
66035;HTU21D;52805;51.074;5.842;2023-10-13T02:46:59;19.40;118.99
66035;HTU21D;52805;51.074;5.842;2023-10-13T02:49:26;19.40;118.99
66035;HTU21D;52805;51.074;5.842;2023-10-13T02:51:55;19.42;118.99
66035;HTU21D;52805;51.074;5.842;2023-10-13T02:54:21;19.43;118.99
66035;HTU21D;52805;51.074;5.842;2023-10-13T02:56:47;19.44;118.99
66035;HTU21D;52805;51.074;5.842;2023-10-13T02:59:31;19.46;118.99
66035;HTU21D;52805;51.074;5.842;2023-10-13T03:02:01;19.44;118.99
66035;HTU21D;52805;51.074;5.842;2023-10-13T03:04:32;19.45;118.99
66035;HTU21D;52805;51.074;5.842;2023-10-13T03:06:58;19.44;118.99
66035;HTU21D;52805;51.074;5.842;2023-10-13T03:09:25;19.46;118.99
66035;HTU21D;52805;51.074;5.842;2023-10-13T03:11:51;19.46;118.99
66035;HTU21D;52805;51.074;5.842;2023-10-13T03:14:21;19.46;118.99
66035;HTU21D;52805;51.074;5.842;2023-10-13T03:17:05;19.46;118.99
66035;HTU21D;52805;51.074;5.842;2023-10-13T03:19:32;19.47;118.99
66035;HTU21D;52805;51.074;5.842;2023-10-13T03:22:04;19.50;118.99
66035;HTU21D;52805;51.074;5.842;2023-10-13T03:24:37;19.51;118.99
66035;HTU21D;52805;51.074;5.842;2023-10-13T03:27:16;19.48;118.99
66035;HTU21D;52805;51.074;5.842;2023-10-13T03:29:44;19.51;118.99
66035;HTU21D;52805;51.074;5.842;2023-10-13T03:32:11;19.51;118.99
66035;HTU21D;52805;51.074;5.842;2023-10-13T03:34:38;19.51;118.99
66035;HTU21D;52805;51.074;5.842;2023-10-13T03:37:16;19.50;118.99
66035;HTU21D;52805;51.074;5.842;2023-10-13T03:40:12;19.53;118.99
66035;HTU21D;52805;51.074;5.842;2023-10-13T03:42:57;19.54;118.99
66035;HTU21D;52805;51.074;5.842;2023-10-13T03:48:15;19.51;118.99
66035;HTU21D;52805;51.074;5.842;2023-10-13T03:50:51;19.51;118.99
66035;HTU21D;52805;51.074;5.842;2023-10-13T03:53:33;19.51;118.99
66035;HTU21D;52805;51.074;5.842;2023-10-13T03:56:04;19.51;118.99
66035;HTU21D;52805;51.074;5.842;2023-10-13T03:58:53;19.47;118.99
66035;HTU21D;52805;51.074;5.842;2023-10-13T04:01:37;19.47;118.99
66035;HTU21D;52805;51.074;5.842;2023-10-13T04:04:10;19.47;118.99
66035;HTU21D;52805;51.074;5.842;2023-10-13T04:06:38;19.46;118.99
66035;HTU21D;52805;51.074;5.842;2023-10-13T04:09:19;19.47;118.99
66035;HTU21D;52805;51.074;5.842;2023-10-13T04:12:04;19.48;118.99
66035;HTU21D;52805;51.074;5.842;2023-10-13T04:14:44;19.48;118.99
66035;HTU21D;52805;51.074;5.842;2023-10-13T04:17:29;19.48;118.99
66035;HTU21D;52805;51.074;5.842;2023-10-13T04:20:00;19.51;118.99
66035;HTU21D;52805;51.074;5.842;2023-10-13T04:22:36;19.51;118.99
66035;HTU21D;52805;51.074;5.842;2023-10-13T04:27:59;19.52;118.99
66035;HTU21D;52805;51.074;5.842;2023-10-13T04:30:51;19.58;118.99
66035;HTU21D;52805;51.074;5.842;2023-10-13T04:33:24;19.56;118.99
66035;HTU21D;52805;51.074;5.842;2023-10-13T04:36:06;19.53;118.99
66035;HTU21D;52805;51.074;5.842;2023-10-13T04:38:58;19.51;118.99
66035;HTU21D;52805;51.074;5.842;2023-10-13T04:41:35;19.53;118.99
66035;HTU21D;52805;51.074;5.842;2023-10-13T04:44:15;19.56;118.99
66035;HTU21D;52805;51.074;5.842;2023-10-13T04:47:00;19.56;118.99
66035;HTU21D;52805;51.074;5.842;2023-10-13T04:49:30;19.55;118.99
66035;HTU21D;52805;51.074;5.842;2023-10-13T04:52:22;19.55;118.99
66035;HTU21D;52805;51.074;5.842;2023-10-13T04:55:06;19.57;118.99
66035;HTU21D;52805;51.074;5.842;2023-10-13T04:58:07;19.55;118.99
66035;HTU21D;52805;51.074;5.842;2023-10-13T05:03:49;19.58;118.99
66035;HTU21D;52805;51.074;5.842;2023-10-13T05:06:18;19.57;118.99
66035;HTU21D;52805;51.074;5.842;2023-10-13T05:09:02;19.56;118.99
66035;HTU21D;52805;51.074;5.842;2023-10-13T05:11:46;19.54;118.99
66035;HTU21D;52805;51.074;5.842;2023-10-13T05:14:31;19.53;118.99
66035;HTU21D;52805;51.074;5.842;2023-10-13T05:17:29;19.53;118.99
66035;HTU21D;52805;51.074;5.842;2023-10-13T05:20:14;19.54;118.99
66035;HTU21D;52805;51.074;5.842;2023-10-13T05:22:58;19.51;118.99
66035;HTU21D;52805;51.074;5.842;2023-10-13T05:25:42;19.50;118.99
66035;HTU21D;52805;51.074;5.842;2023-10-13T05:28:27;19.55;118.99
66035;HTU21D;52805;51.074;5.842;2023-10-13T05:31:11;19.55;118.99
66035;HTU21D;52805;51.074;5.842;2023-10-13T05:33:55;19.55;118.99
66035;HTU21D;52805;51.074;5.842;2023-10-13T05:36:40;19.53;118.99
66035;HTU21D;52805;51.074;5.842;2023-10-13T05:39:24;19.53;118.99
66035;HTU21D;52805;51.074;5.842;2023-10-13T05:42:09;19.54;118.99
66035;HTU21D;52805;51.074;5.842;2023-10-13T05:44:53;19.57;118.99
66035;HTU21D;52805;51.074;5.842;2023-10-13T05:47:42;19.60;118.99
66035;HTU21D;52805;51.074;5.842;2023-10-13T05:50:11;19.58;118.99
66035;HTU21D;52805;51.074;5.842;2023-10-13T05:52:40;19.56;118.99
66035;HTU21D;52805;51.074;5.842;2023-10-13T05:55:30;19.56;118.99
66035;HTU21D;52805;51.074;5.842;2023-10-13T05:58:15;19.53;118.99
66035;HTU21D;52805;51.074;5.842;2023-10-13T06:01:00;19.54;118.99
66035;HTU21D;52805;51.074;5.842;2023-10-13T06:03:45;19.55;118.99
66035;HTU21D;52805;51.074;5.842;2023-10-13T06:06:29;19.55;118.99
66035;HTU21D;52805;51.074;5.842;2023-10-13T06:09:13;19.56;118.99
66035;HTU21D;52805;51.074;5.842;2023-10-13T06:11:58;19.60;118.99
66035;HTU21D;52805;51.074;5.842;2023-10-13T06:14:46;19.59;118.99
66035;HTU21D;52805;51.074;5.842;2023-10-13T06:17:30;19.62;118.99
66035;HTU21D;52805;51.074;5.842;2023-10-13T06:20:15;19.62;118.99
66035;HTU21D;52805;51.074;5.842;2023-10-13T06:22:59;19.65;118.99
66035;HTU21D;52805;51.074;5.842;2023-10-13T06:25:51;19.65;118.99
66035;HTU21D;52805;51.074;5.842;2023-10-13T06:28:35;19.68;118.99
66035;HTU21D;52805;51.074;5.842;2023-10-13T06:31:09;19.74;118.99
66035;HTU21D;52805;51.074;5.842;2023-10-13T06:33:40;19.81;118.99
66035;HTU21D;52805;51.074;5.842;2023-10-13T06:36:13;19.80;118.99
66035;HTU21D;52805;51.074;5.842;2023-10-13T06:38:39;19.82;118.99
66035;HTU21D;52805;51.074;5.842;2023-10-13T06:41:05;19.85;118.99
66035;HTU21D;52805;51.074;5.842;2023-10-13T06:43:35;19.85;118.99
66035;HTU21D;52805;51.074;5.842;2023-10-13T06:46:11;19.88;118.99
66035;HTU21D;52805;51.074;5.842;2023-10-13T06:48:41;19.87;118.99
66035;HTU21D;52805;51.074;5.842;2023-10-13T06:51:07;19.88;118.99
66035;HTU21D;52805;51.074;5.842;2023-10-13T06:53:49;19.91;118.99
66035;HTU21D;52805;51.074;5.842;2023-10-13T06:56:15;19.94;118.99
66035;HTU21D;52805;51.074;5.842;2023-10-13T06:58:48;19.95;118.99
66035;HTU21D;52805;51.074;5.842;2023-10-13T07:01:14;19.98;118.99
66035;HTU21D;52805;51.074;5.842;2023-10-13T07:03:48;20.01;118.99
66035;HTU21D;52805;51.074;5.842;2023-10-13T07:06:19;20.06;118.99
66035;HTU21D;52805;51.074;5.842;2023-10-13T07:08:46;20.09;118.99
66035;HTU21D;52805;51.074;5.842;2023-10-13T07:11:27;20.14;118.99
66035;HTU21D;52805;51.074;5.842;2023-10-13T07:14:00;20.22;118.99
66035;HTU21D;52805;51.074;5.842;2023-10-13T07:16:36;20.21;118.99
66035;HTU21D;52805;51.074;5.842;2023-10-13T07:19:01;20.22;118.99
66035;HTU21D;52805;51.074;5.842;2023-10-13T07:21:33;20.24;118.99
66035;HTU21D;52805;51.074;5.842;2023-10-13T07:23:59;20.27;118.99
66035;HTU21D;52805;51.074;5.842;2023-10-13T07:26:35;20.30;118.99
66035;HTU21D;52805;51.074;5.842;2023-10-13T07:29:09;20.40;118.99
66035;HTU21D;52805;51.074;5.842;2023-10-13T07:31:34;20.46;118.99
66035;HTU21D;52805;51.074;5.842;2023-10-13T07:34:00;20.45;118.99
66035;HTU21D;52805;51.074;5.842;2023-10-13T07:36:30;20.48;118.99
66035;HTU21D;52805;51.074;5.842;2023-10-13T07:39:04;20.53;118.99
66035;HTU21D;52805;51.074;5.842;2023-10-13T07:41:47;20.53;118.99
66035;HTU21D;52805;51.074;5.842;2023-10-13T07:44:18;20.56;118.99
66035;HTU21D;52805;51.074;5.842;2023-10-13T07:46:46;20.55;118.99
66035;HTU21D;52805;51.074;5.842;2023-10-13T07:49:23;20.58;118.99
66035;HTU21D;52805;51.074;5.842;2023-10-13T07:51:50;20.62;118.99
66035;HTU21D;52805;51.074;5.842;2023-10-13T07:54:22;20.62;118.99
66035;HTU21D;52805;51.074;5.842;2023-10-13T07:56:48;20.68;118.99
66035;HTU21D;52805;51.074;5.842;2023-10-13T07:59:14;20.72;118.99
66035;HTU21D;52805;51.074;5.842;2023-10-13T08:01:47;20.71;118.99
66035;HTU21D;52805;51.074;5.842;2023-10-13T08:04:21;20.79;118.99
66035;HTU21D;52805;51.074;5.842;2023-10-13T08:06:53;20.81;118.99
66035;HTU21D;52805;51.074;5.842;2023-10-13T08:09:29;20.88;118.62
66035;HTU21D;52805;51.074;5.842;2023-10-13T08:11:57;20.95;115.54
66035;HTU21D;52805;51.074;5.842;2023-10-13T08:14:23;21.01;111.66
66035;HTU21D;52805;51.074;5.842;2023-10-13T08:16:49;21.07;108.07
66035;HTU21D;52805;51.074;5.842;2023-10-13T08:19:20;21.14;105.49
66035;HTU21D;52805;51.074;5.842;2023-10-13T08:21:54;21.20;104.19
66035;HTU21D;52805;51.074;5.842;2023-10-13T08:24:30;21.34;102.37
66035;HTU21D;52805;51.074;5.842;2023-10-13T08:27:07;21.46;99.37
66035;HTU21D;52805;51.074;5.842;2023-10-13T08:29:51;21.52;95.30
66035;HTU21D;52805;51.074;5.842;2023-10-13T08:32:24;21.62;90.62
66035;HTU21D;52805;51.074;5.842;2023-10-13T08:34:58;21.65;88.70
66035;HTU21D;52805;51.074;5.842;2023-10-13T08:37:26;21.68;86.31
66035;HTU21D;52805;51.074;5.842;2023-10-13T08:39:59;21.77;85.03
66035;HTU21D;52805;51.074;5.842;2023-10-13T08:42:32;21.82;82.94
66035;HTU21D;52805;51.074;5.842;2023-10-13T08:45:09;21.87;81.39
66035;HTU21D;52805;51.074;5.842;2023-10-13T08:47:57;21.93;80.05
66035;HTU21D;52805;51.074;5.842;2023-10-13T08:50:38;21.95;77.48
66035;HTU21D;52805;51.074;5.842;2023-10-13T08:53:20;22.02;75.77
66035;HTU21D;52805;51.074;5.842;2023-10-13T08:56:11;22.04;74.28
66035;HTU21D;52805;51.074;5.842;2023-10-13T08:58:42;22.08;73.97
66035;HTU21D;52805;51.074;5.842;2023-10-13T09:01:25;22.09;72.13
66035;HTU21D;52805;51.074;5.842;2023-10-13T09:04:13;22.08;71.75
66035;HTU21D;52805;51.074;5.842;2023-10-13T09:06:54;22.17;70.58
66035;HTU21D;52805;51.074;5.842;2023-10-13T09:12:26;22.31;67.78
66035;HTU21D;52805;51.074;5.842;2023-10-13T09:15:04;22.40;66.14
66035;HTU21D;52805;51.074;5.842;2023-10-13T09:17:41;22.42;66.42
66035;HTU21D;52805;51.074;5.842;2023-10-13T09:20:27;22.51;64.62
66035;HTU21D;52805;51.074;5.842;2023-10-13T09:23:14;22.57;62.79
66035;HTU21D;52805;51.074;5.842;2023-10-13T09:25:51;22.63;62.75
66035;HTU21D;52805;51.074;5.842;2023-10-13T09:28:23;22.69;60.68
66035;HTU21D;52805;51.074;5.842;2023-10-13T09:30:53;22.78;59.54
66035;HTU21D;52805;51.074;5.842;2023-10-13T09:33:29;22.80;58.62
66035;HTU21D;52805;51.074;5.842;2023-10-13T09:36:13;22.87;57.03
66035;HTU21D;52805;51.074;5.842;2023-10-13T09:38:39;22.90;56.45
66035;HTU21D;52805;51.074;5.842;2023-10-13T09:41:07;22.95;55.51
66035;HTU21D;52805;51.074;5.842;2023-10-13T09:43:52;23.00;54.14
66035;HTU21D;52805;51.074;5.842;2023-10-13T09:46:21;23.05;55.28
66035;HTU21D;52805;51.074;5.842;2023-10-13T09:48:58;23.14;54.73
66035;HTU21D;52805;51.074;5.842;2023-10-13T09:51:34;23.20;53.23
66035;HTU21D;52805;51.074;5.842;2023-10-13T09:57:19;23.34;51.24
66035;HTU21D;52805;51.074;5.842;2023-10-13T10:00:02;23.35;51.01
66035;HTU21D;52805;51.074;5.842;2023-10-13T10:02:37;23.37;50.28
66035;HTU21D;52805;51.074;5.842;2023-10-13T10:05:09;23.38;51.01
66035;HTU21D;52805;51.074;5.842;2023-10-13T10:07:57;23.52;50.36
66035;HTU21D;52805;51.074;5.842;2023-10-13T10:10:56;23.65;49.86
66035;HTU21D;52805;51.074;5.842;2023-10-13T10:19:02;23.80;46.01
66035;HTU21D;52805;51.074;5.842;2023-10-13T10:21:37;23.82;46.26
66035;HTU21D;52805;51.074;5.842;2023-10-13T10:24:16;23.81;43.26
66035;HTU21D;52805;51.074;5.842;2023-10-13T10:26:59;23.73;45.17
66035;HTU21D;52805;51.074;5.842;2023-10-13T10:29:24;23.70;44.98
66035;HTU21D;52805;51.074;5.842;2023-10-13T10:31:50;23.68;44.42
66035;HTU21D;52805;51.074;5.842;2023-10-13T10:34:17;23.75;44.57
66035;HTU21D;52805;51.074;5.842;2023-10-13T10:36:56;23.83;44.16
66035;HTU21D;52805;51.074;5.842;2023-10-13T10:39:36;23.94;44.48
66035;HTU21D;52805;51.074;5.842;2023-10-13T10:42:12;24.04;43.77
66035;HTU21D;52805;51.074;5.842;2023-10-13T10:44:42;24.06;42.55
66035;HTU21D;52805;51.074;5.842;2023-10-13T10:47:11;24.09;42.29
66035;HTU21D;52805;51.074;5.842;2023-10-13T10:49:38;24.05;42.10
66035;HTU21D;52805;51.074;5.842;2023-10-13T10:52:09;24.09;41.92
66035;HTU21D;52805;51.074;5.842;2023-10-13T10:54:40;24.13;41.58
66035;HTU21D;52805;51.074;5.842;2023-10-13T10:57:09;24.15;41.02
66035;HTU21D;52805;51.074;5.842;2023-10-13T10:59:43;24.27;38.86
66035;HTU21D;52805;51.074;5.842;2023-10-13T11:02:10;24.32;37.48
66035;HTU21D;52805;51.074;5.842;2023-10-13T11:04:41;24.48;38.92
66035;HTU21D;52805;51.074;5.842;2023-10-13T11:07:23;24.61;37.17
66035;HTU21D;52805;51.074;5.842;2023-10-13T11:09:49;24.75;35.56
66035;HTU21D;52805;51.074;5.842;2023-10-13T11:12:19;24.75;35.51
66035;HTU21D;52805;51.074;5.842;2023-10-13T11:15:07;24.76;34.76
66035;HTU21D;52805;51.074;5.842;2023-10-13T11:17:40;24.70;34.37
66035;HTU21D;52805;51.074;5.842;2023-10-13T11:20:17;24.69;34.04
66035;HTU21D;52805;51.074;5.842;2023-10-13T11:22:49;24.65;33.32
66035;HTU21D;52805;51.074;5.842;2023-10-13T11:25:30;24.60;33.82
66035;HTU21D;52805;51.074;5.842;2023-10-13T11:28:13;24.58;33.25
66035;HTU21D;52805;51.074;5.842;2023-10-13T11:30:44;24.56;33.67
66035;HTU21D;52805;51.074;5.842;2023-10-13T11:33:17;24.51;33.54
66035;HTU21D;52805;51.074;5.842;2023-10-13T11:35:45;24.48;34.09
66035;HTU21D;52805;51.074;5.842;2023-10-13T11:38:22;24.46;33.18
66035;HTU21D;52805;51.074;5.842;2023-10-13T11:41:09;24.47;32.36
66035;HTU21D;52805;51.074;5.842;2023-10-13T11:46:25;24.56;31.70
66035;HTU21D;52805;51.074;5.842;2023-10-13T11:49:06;24.61;31.18
66035;HTU21D;52805;51.074;5.842;2023-10-13T11:51:48;24.68;30.70
66035;HTU21D;52805;51.074;5.842;2023-10-13T11:54:22;24.75;30.45
66035;HTU21D;52805;51.074;5.842;2023-10-13T11:56:49;24.88;30.03
66035;HTU21D;52805;51.074;5.842;2023-10-13T11:59:16;25.04;29.33
66035;HTU21D;52805;51.074;5.842;2023-10-13T12:01:49;25.21;28.41
66035;HTU21D;52805;51.074;5.842;2023-10-13T12:04:34;25.29;26.11
66035;HTU21D;52805;51.074;5.842;2023-10-13T12:07:09;25.35;25.98
66035;HTU21D;52805;51.074;5.842;2023-10-13T12:09:54;25.36;26.68
66035;HTU21D;52805;51.074;5.842;2023-10-13T12:12:19;25.34;26.42
66035;HTU21D;52805;51.074;5.842;2023-10-13T12:14:45;25.34;24.78
66035;HTU21D;52805;51.074;5.842;2023-10-13T12:17:27;25.19;24.02
66035;HTU21D;52805;51.074;5.842;2023-10-13T12:19:57;25.04;24.30
66035;HTU21D;52805;51.074;5.842;2023-10-13T12:22:24;24.98;23.15
66035;HTU21D;52805;51.074;5.842;2023-10-13T12:24:54;24.91;23.52
66035;HTU21D;52805;51.074;5.842;2023-10-13T12:27:21;24.85;23.94
66035;HTU21D;52805;51.074;5.842;2023-10-13T12:30:01;24.86;23.39
66035;HTU21D;52805;51.074;5.842;2023-10-13T12:32:33;24.89;23.46
66035;HTU21D;52805;51.074;5.842;2023-10-13T12:35:00;24.91;23.29
66035;HTU21D;52805;51.074;5.842;2023-10-13T12:37:46;24.93;23.50
66035;HTU21D;52805;51.074;5.842;2023-10-13T12:40:17;25.02;22.14
66035;HTU21D;52805;51.074;5.842;2023-10-13T12:43:02;25.15;21.74
66035;HTU21D;52805;51.074;5.842;2023-10-13T12:45:48;25.20;21.35
66035;HTU21D;52805;51.074;5.842;2023-10-13T12:48:33;25.23;20.73
66035;HTU21D;52805;51.074;5.842;2023-10-13T12:51:18;25.17;19.49
66035;HTU21D;52805;51.074;5.842;2023-10-13T12:54:06;25.01;19.39
66035;HTU21D;52805;51.074;5.842;2023-10-13T12:56:46;24.97;19.34
66035;HTU21D;52805;51.074;5.842;2023-10-13T12:59:12;24.93;18.19
66035;HTU21D;52805;51.074;5.842;2023-10-13T13:01:41;24.91;17.87
66035;HTU21D;52805;51.074;5.842;2023-10-13T13:04:10;24.86;18.74
66035;HTU21D;52805;51.074;5.842;2023-10-13T13:06:51;24.82;19.02
66035;HTU21D;52805;51.074;5.842;2023-10-13T13:09:19;24.80;19.00
66035;HTU21D;52805;51.074;5.842;2023-10-13T13:11:54;24.75;18.88
66035;HTU21D;52805;51.074;5.842;2023-10-13T13:14:26;24.73;18.76
66035;HTU21D;52805;51.074;5.842;2023-10-13T13:16:58;24.72;19.04
66035;HTU21D;52805;51.074;5.842;2023-10-13T13:19:31;24.76;18.80
66035;HTU21D;52805;51.074;5.842;2023-10-13T13:22:00;24.69;18.38
66035;HTU21D;52805;51.074;5.842;2023-10-13T13:24:25;24.61;18.43
66035;HTU21D;52805;51.074;5.842;2023-10-13T13:26:58;24.58;18.38
66035;HTU21D;52805;51.074;5.842;2023-10-13T13:29:29;24.51;18.55
66035;HTU21D;52805;51.074;5.842;2023-10-13T13:31:56;24.47;18.98
66035;HTU21D;52805;51.074;5.842;2023-10-13T13:34:22;24.43;18.82
66035;HTU21D;52805;51.074;5.842;2023-10-13T13:36:47;24.45;18.27
66035;HTU21D;52805;51.074;5.842;2023-10-13T13:39:21;24.40;18.48
66035;HTU21D;52805;51.074;5.842;2023-10-13T13:41:56;24.41;17.35
66035;HTU21D;52805;51.074;5.842;2023-10-13T13:44:25;24.38;17.18
66035;HTU21D;52805;51.074;5.842;2023-10-13T13:47:01;24.34;17.71
66035;HTU21D;52805;51.074;5.842;2023-10-13T13:49:41;24.29;17.91
66035;HTU21D;52805;51.074;5.842;2023-10-13T13:52:12;24.26;17.34
66035;HTU21D;52805;51.074;5.842;2023-10-13T13:54:47;24.20;17.40
66035;HTU21D;52805;51.074;5.842;2023-10-13T13:57:13;24.17;17.46
66035;HTU21D;52805;51.074;5.842;2023-10-13T13:59:39;24.13;17.86
66035;HTU21D;52805;51.074;5.842;2023-10-13T14:02:09;24.13;17.83
66035;HTU21D;52805;51.074;5.842;2023-10-13T14:04:46;24.06;17.77
66035;HTU21D;52805;51.074;5.842;2023-10-13T14:07:17;24.05;17.08
66035;HTU21D;52805;51.074;5.842;2023-10-13T14:09:46;24.03;16.82
66035;HTU21D;52805;51.074;5.842;2023-10-13T14:12:19;24.04;17.25
66035;HTU21D;52805;51.074;5.842;2023-10-13T14:14:56;24.05;16.74
66035;HTU21D;52805;51.074;5.842;2023-10-13T14:17:22;24.04;16.19
66035;HTU21D;52805;51.074;5.842;2023-10-13T14:19:57;23.99;16.64
66035;HTU21D;52805;51.074;5.842;2023-10-13T14:22:23;24.00;16.37
66035;HTU21D;52805;51.074;5.842;2023-10-13T14:24:52;23.98;16.83
66035;HTU21D;52805;51.074;5.842;2023-10-13T14:27:21;23.92;16.95
66035;HTU21D;52805;51.074;5.842;2023-10-13T14:29:49;23.86;17.77
66035;HTU21D;52805;51.074;5.842;2023-10-13T14:32:19;23.90;17.55
66035;HTU21D;52805;51.074;5.842;2023-10-13T14:34:50;23.87;17.03
66035;HTU21D;52805;51.074;5.842;2023-10-13T14:37:20;23.84;17.51
66035;HTU21D;52805;51.074;5.842;2023-10-13T14:39:54;23.81;17.47
66035;HTU21D;52805;51.074;5.842;2023-10-13T14:42:24;23.79;17.98
66035;HTU21D;52805;51.074;5.842;2023-10-13T14:44:50;23.70;18.32
66035;HTU21D;52805;51.074;5.842;2023-10-13T14:47:24;23.69;18.51
66035;HTU21D;52805;51.074;5.842;2023-10-13T14:49:55;23.66;18.54
66035;HTU21D;52805;51.074;5.842;2023-10-13T14:52:22;23.64;18.02
66035;HTU21D;52805;51.074;5.842;2023-10-13T14:54:48;23.62;18.54
66035;HTU21D;52805;51.074;5.842;2023-10-13T14:57:21;23.61;18.51
66035;HTU21D;52805;51.074;5.842;2023-10-13T14:59:51;23.56;19.17
66035;HTU21D;52805;51.074;5.842;2023-10-13T15:02:17;23.54;19.99
66035;HTU21D;52805;51.074;5.842;2023-10-13T15:04:43;23.55;20.94
66035;HTU21D;52805;51.074;5.842;2023-10-13T15:07:08;23.49;20.77
66035;HTU21D;52805;51.074;5.842;2023-10-13T15:09:34;23.44;20.94
66035;HTU21D;52805;51.074;5.842;2023-10-13T15:12:00;23.38;21.28
66035;HTU21D;52805;51.074;5.842;2023-10-13T15:14:31;23.37;21.45
66035;HTU21D;52805;51.074;5.842;2023-10-13T15:16:58;23.32;21.14
66035;HTU21D;52805;51.074;5.842;2023-10-13T15:19:26;23.31;21.11
66035;HTU21D;52805;51.074;5.842;2023-10-13T15:21:51;23.29;21.08
66035;HTU21D;52805;51.074;5.842;2023-10-13T15:24:18;23.25;21.15
66035;HTU21D;52805;51.074;5.842;2023-10-13T15:26:47;23.26;21.11
66035;HTU21D;52805;51.074;5.842;2023-10-13T15:29:19;23.30;20.29
66035;HTU21D;52805;51.074;5.842;2023-10-13T15:31:51;23.25;20.73
66035;HTU21D;52805;51.074;5.842;2023-10-13T15:34:27;23.26;20.29
66035;HTU21D;52805;51.074;5.842;2023-10-13T15:36:55;23.22;20.44
66035;HTU21D;52805;51.074;5.842;2023-10-13T15:39:22;23.23;20.70
66035;HTU21D;52805;51.074;5.842;2023-10-13T15:41:55;23.18;20.71
66035;HTU21D;52805;51.074;5.842;2023-10-13T15:44:25;23.15;20.76
66035;HTU21D;52805;51.074;5.842;2023-10-13T15:46:55;23.11;20.94
66035;HTU21D;52805;51.074;5.842;2023-10-13T15:49:22;23.08;21.14
66035;HTU21D;52805;51.074;5.842;2023-10-13T15:51:48;23.05;21.05
66035;HTU21D;52805;51.074;5.842;2023-10-13T15:54:18;23.03;21.29
66035;HTU21D;52805;51.074;5.842;2023-10-13T15:56:45;23.02;21.50
66035;HTU21D;52805;51.074;5.842;2023-10-13T15:59:10;23.00;21.62
66035;HTU21D;52805;51.074;5.842;2023-10-13T16:01:37;23.00;21.26
66035;HTU21D;52805;51.074;5.842;2023-10-13T16:04:05;22.99;21.44
66035;HTU21D;52805;51.074;5.842;2023-10-13T16:06:38;22.99;21.43
66035;HTU21D;52805;51.074;5.842;2023-10-13T16:09:04;22.97;21.61
66035;HTU21D;52805;51.074;5.842;2023-10-13T16:11:42;22.94;21.83